Time;durP1;ratioP1;P1;durP2;ratioP2;P2;SDS_P1;SDS_P2;PMS_P1;PMS_P2;Temp;Humidity;BMP_temperature;BMP_pressure;BME280_temperature;BME280_humidity;BME280_pressure;Samples;Min_cycle;Max_cycle;Signal;HPM_P1;HPM_P2
2022/06/21 00:00:27;;;;;;;;;;;;;;;16.47;49.80;100622.03;5012904;28;7204;-79
2022/06/21 00:03:02;;;;;;;;;;;;;;;16.46;50.01;100624.56;5006935;28;6827;-79
2022/06/21 00:05:34;;;;;;;;;;;;;;;16.45;49.74;100617.66;4994507;28;6962;-79
2022/06/21 00:08:03;;;;;;;;;;;;;;;16.42;49.93;100618.47;5018072;28;9271;-79
2022/06/21 00:10:34;;;;;;;;;;;;;;;16.39;50.04;100628.72;5008545;28;7416;-79
2022/06/21 00:13:07;;;;;;;;;;;;;;;16.35;49.92;100627.75;5011247;28;7091;-79
2022/06/21 00:15:33;;;;;;;;;;;;;;;16.30;49.79;100620.69;5013323;28;8501;-80
2022/06/21 00:17:59;;;;;;;;;;;;;;;16.23;49.73;100622.22;5016076;28;6792;-80
2022/06/21 00:20:27;;;;;;;;;;;;;;;16.16;50.61;100622.88;5014768;28;6980;-80
2022/06/21 00:22:53;;;;;;;;;;;;;;;16.10;50.84;100621.00;4993640;28;8902;-80
2022/06/21 00:25:24;;;;;;;;;;;;;;;16.04;50.62;100616.53;5001035;28;6792;-80
2022/06/21 00:27:51;;;;;;;;;;;;;;;16.00;50.75;100625.03;5015354;28;7194;-80
2022/06/21 00:30:19;;;;;;;;;;;;;;;15.96;50.61;100621.50;4989059;28;9864;-80
2022/06/21 00:32:48;;;;;;;;;;;;;;;15.93;50.96;100618.81;5018780;28;6962;-80
2022/06/21 00:35:17;;;;;;;;;;;;;;;15.90;50.98;100618.72;4991238;28;7062;-80
2022/06/21 00:37:44;;;;;;;;;;;;;;;15.83;50.59;100611.56;5006877;28;7196;-80
2022/06/21 00:40:28;;;;;;;;;;;;;;;15.79;51.21;100614.91;5014066;28;7205;-80
2022/06/21 00:43:20;;;;;;;;;;;;;;;15.70;50.50;100618.09;4981671;28;6997;-80
2022/06/21 00:45:49;;;;;;;;;;;;;;;15.63;51.48;100618.72;4986204;28;8521;-80
2022/06/21 00:48:37;;;;;;;;;;;;;;;15.58;51.11;100621.19;4986210;28;8508;-80
2022/06/21 00:51:18;;;;;;;;;;;;;;;15.53;51.53;100612.38;5015621;28;7070;-80
2022/06/21 00:53:53;;;;;;;;;;;;;;;15.48;51.04;100606.22;5016042;28;7016;-80
2022/06/21 00:56:36;;;;;;;;;;;;;;;15.46;51.30;100602.72;5005576;28;6972;-80
2022/06/21 00:59:28;;;;;;;;;;;;;;;15.41;51.21;100597.41;5019018;28;7053;-80
2022/06/21 01:02:04;;;;;;;;;;;;;;;15.37;51.03;100601.59;5005053;28;8836;-80
2022/06/21 01:04:41;;;;;;;;;;;;;;;15.33;51.37;100597.16;5013633;28;7264;-80
2022/06/21 01:07:10;;;;;;;;;;;;;;;15.31;51.47;100596.22;5018866;28;6985;-80
2022/06/21 01:10:03;;;;;;;;;;;;;;;15.29;51.51;100595.31;5012081;28;6811;-80
2022/06/21 01:12:48;;;;;;;;;;;;;;;15.27;51.66;100608.16;5020836;28;7372;-80
2022/06/21 01:15:26;;;;;;;;;;;;;;;15.24;51.88;100610.66;5017077;28;6992;-80
2022/06/21 01:18:06;;;;;;;;;;;;;;;15.19;52.49;100607.03;5018700;28;7000;-80
2022/06/21 01:20:38;;;;;;;;;;;;;;;15.18;52.10;100609.59;5016080;28;6958;-80
2022/06/21 01:23:27;;;;;;;;;;;;;;;15.18;51.98;100609.59;5013152;28;7345;-80
2022/06/21 01:26:29;;;;;;;;;;;;;;;15.13;52.15;100599.09;5017163;28;7027;-80
2022/06/21 01:28:56;;;;;;;;;;;;;;;15.08;51.78;100596.38;5023564;28;7377;-80
2022/06/21 01:31:22;;;;;;;;;;;;;;;15.06;52.33;100585.09;4997532;28;7187;-80
2022/06/21 01:33:47;;;;;;;;;;;;;;;15.06;51.83;100594.56;4989439;28;8567;-80
2022/06/21 01:36:20;;;;;;;;;;;;;;;15.03;52.87;100576.41;5006980;28;7949;-80
2022/06/21 01:38:57;;;;;;;;;;;;;;;15.00;52.61;100578.03;5015462;28;7200;-80
2022/06/21 01:41:40;;;;;;;;;;;;;;;14.96;52.85;100581.34;5015448;28;7180;-80
2022/06/21 01:44:16;;;;;;;;;;;;;;;14.91;52.48;100589.78;5002195;28;8777;-80
2022/06/21 01:46:43;;;;;;;;;;;;;;;14.86;52.37;100585.31;5024064;28;7181;-80
2022/06/21 01:49:17;;;;;;;;;;;;;;;14.81;52.58;100581.72;5011652;28;7014;-80
2022/06/21 01:51:58;;;;;;;;;;;;;;;14.79;52.99;100583.38;5014310;28;7145;-80
2022/06/21 01:54:33;;;;;;;;;;;;;;;14.75;52.51;100591.84;4984317;28;8420;-80
2022/06/21 01:57:00;;;;;;;;;;;;;;;14.70;52.92;100580.47;5014024;28;7863;-80
2022/06/21 01:59:39;;;;;;;;;;;;;;;14.67;53.13;100583.81;5021423;28;6829;-80
2022/06/21 02:02:13;;;;;;;;;;;;;;;14.63;52.81;100579.38;4987042;28;7458;-80
2022/06/21 02:05:13;;;;;;;;;;;;;;;14.58;52.49;100576.66;5017126;28;6891;-80
2022/06/21 02:07:52;;;;;;;;;;;;;;;14.56;53.36;100577.41;5000179;28;6827;-80
2022/06/21 02:10:36;;;;;;;;;;;;;;;14.51;52.83;100579.81;4999814;28;8280;-80
2022/06/21 02:13:31;;;;;;;;;;;;;;;14.49;53.10;100578.91;5009466;28;6891;-80
2022/06/21 02:16:19;;;;;;;;;;;;;;;14.45;53.26;100569.28;5021320;28;6808;-80
2022/06/21 02:18:53;;;;;;;;;;;;;;;14.42;53.07;100572.63;5003168;28;6868;-80
2022/06/21 02:21:38;;;;;;;;;;;;;;;14.41;53.36;100577.75;5005974;28;8793;-80
2022/06/21 02:24:04;;;;;;;;;;;;;;;14.36;52.94;100568.97;5017087;28;6818;-80
2022/06/21 02:26:34;;;;;;;;;;;;;;;14.33;53.28;100562.00;5025549;28;8711;-80
2022/06/21 02:29:00;;;;;;;;;;;;;;;14.29;53.44;100552.41;5002616;28;7626;-80
2022/06/21 02:31:27;;;;;;;;;;;;;;;14.25;53.52;100546.25;4985601;28;8633;-80
2022/06/21 02:34:00;;;;;;;;;;;;;;;14.22;54.55;100538.44;5007221;28;7192;-80
2022/06/21 02:36:36;;;;;;;;;;;;;;;14.19;54.67;100528.00;5016166;28;7270;-80
2022/06/21 02:39:06;;;;;;;;;;;;;;;14.17;54.08;100524.50;4999731;28;6828;-80
2022/06/21 02:41:40;;;;;;;;;;;;;;;14.15;54.58;100523.56;5017449;28;8085;-80
2022/06/21 02:44:15;;;;;;;;;;;;;;;14.10;54.68;100531.13;5014000;28;8228;-80
2022/06/21 02:46:50;;;;;;;;;;;;;;;14.07;55.06;100533.63;4998183;28;8674;-80
2022/06/21 02:49:23;;;;;;;;;;;;;;;14.04;55.47;100538.63;5001290;28;8460;-80
2022/06/21 02:52:03;;;;;;;;;;;;;;;14.02;55.55;100545.44;5006629;28;7160;-80
2022/06/21 02:54:41;;;;;;;;;;;;;;;14.00;54.55;100536.78;5005077;28;8741;-80
2022/06/21 02:57:23;;;;;;;;;;;;;;;13.96;55.32;100538.38;5019262;28;7216;-79
2022/06/21 02:59:51;;;;;;;;;;;;;;;13.93;55.21;100539.94;5008938;28;7739;-79
2022/06/21 03:02:24;;;;;;;;;;;;;;;13.91;54.78;100532.19;5016553;28;6892;-79
2022/06/21 03:04:59;;;;;;;;;;;;;;;13.88;55.64;100532.06;4994063;28;7218;-79
2022/06/21 03:07:37;;;;;;;;;;;;;;;13.85;55.24;100537.09;5009492;28;6804;-79
2022/06/21 03:10:05;;;;;;;;;;;;;;;13.80;55.12;100534.34;5008525;28;7989;-79
2022/06/21 03:12:34;;;;;;;;;;;;;;;13.76;54.93;100527.31;5016855;28;7223;-79
2022/06/21 03:15:10;;;;;;;;;;;;;;;13.74;55.12;100539.28;5000729;28;6954;-79
2022/06/21 03:17:59;;;;;;;;;;;;;;;13.70;54.96;100547.72;5017180;28;6875;-79
2022/06/21 03:20:25;;;;;;;;;;;;;;;13.66;55.79;100554.44;5015873;28;7089;-79
2022/06/21 03:22:54;;;;;;;;;;;;;;;13.65;55.66;100556.94;5024856;28;8996;-79
2022/06/21 03:25:41;;;;;;;;;;;;;;;13.63;55.29;100556.91;5006536;28;6971;-79
2022/06/21 03:28:36;;;;;;;;;;;;;;;13.64;55.60;100558.66;5019261;28;6803;-79
2022/06/21 03:31:17;;;;;;;;;;;;;;;13.61;56.15;100559.44;4984676;28;8730;-79
2022/06/21 03:33:48;;;;;;;;;;;;;;;13.63;56.16;100554.34;5025226;28;6878;-79
2022/06/21 03:36:22;;;;;;;;;;;;;;;13.64;55.42;100553.53;5002471;28;7023;-79
2022/06/21 03:41:42;;;;;;;;;;;;;;;13.66;55.33;100545.84;5003353;28;8613;-79
2022/06/21 03:42:10;;;;;;;;;;;;;;;13.68;55.98;100547.66;5018720;28;7229;-79
2022/06/21 03:45:08;;;;;;;;;;;;;;;13.71;55.31;100547.78;4982415;28;8907;-78
2022/06/21 03:47:42;;;;;;;;;;;;;;;13.71;55.12;100554.63;4993626;28;6956;-78
2022/06/21 03:50:27;;;;;;;;;;;;;;;13.72;55.63;100558.94;4987677;28;8772;-79
2022/06/21 03:53:10;;;;;;;;;;;;;;;13.70;56.33;100564.03;4978299;28;7188;-79
2022/06/21 03:55:48;;;;;;;;;;;;;;;13.71;55.99;100558.09;5016177;28;7179;-79
2022/06/21 03:58:33;;;;;;;;;;;;;;;13.72;56.22;100559.84;5011189;28;7099;-79
2022/06/21 04:01:45;;;;;;;;;;;;;;;13.74;57.23;100553.03;5015152;28;7176;-79
2022/06/21 04:04:21;;;;;;;;;;;;;;;13.76;57.05;100555.66;5006537;28;8437;-79
2022/06/21 04:07:02;;;;;;;;;;;;;;;13.81;56.71;100553.25;5016887;28;7215;-79
2022/06/21 04:09:43;;;;;;;;;;;;;;;13.90;56.99;100548.44;4992297;28;7204;-79
2022/06/21 04:12:26;;;;;;;;;;;;;;;13.96;57.10;100552.97;5014876;28;6981;-79
2022/06/21 04:15:07;;;;;;;;;;;;;;;14.03;57.99;100542.94;5015822;28;8101;-79
2022/06/21 04:17:56;;;;;;;;;;;;;;;14.21;58.44;100540.94;4996589;28;8719;-80
2022/06/21 04:20:38;;;;;;;;;;;;;;;14.57;59.31;100532.72;4981093;28;7214;-80
2022/06/21 04:23:14;;;;;;;;;;;;;;;15.03;60.65;100529.94;5016233;28;7405;-80
2022/06/21 04:25:56;;;;;;;;;;;;;;;15.46;60.14;100523.50;4997432;28;6903;-80
2022/06/21 04:28:51;;;;;;;;;;;;;;;16.04;59.24;100517.44;5015079;28;6832;-80
2022/06/21 04:32:05;;;;;;;;;;;;;;;16.64;58.19;100505.19;5013455;28;7180;-80
2022/06/21 04:34:37;;;;;;;;;;;;;;;17.18;56.90;100505.59;5001823;28;6832;-80
2022/06/21 04:37:16;;;;;;;;;;;;;;;17.59;55.26;100494.38;4991158;28;7860;-80
2022/06/21 04:39:57;;;;;;;;;;;;;;;17.97;54.11;100493.41;5017069;28;7267;-80
2022/06/21 04:42:43;;;;;;;;;;;;;;;18.31;53.08;100497.53;4995728;28;7664;-80
2022/06/21 04:45:18;;;;;;;;;;;;;;;18.59;52.12;100495.41;4997089;28;7042;-80
2022/06/21 04:48:32;;;;;;;;;;;;;;;18.87;51.95;100492.38;5015511;28;7334;-80
2022/06/21 04:51:47;;;;;;;;;;;;;;;19.18;50.69;100499.78;5021397;28;6823;-80
2022/06/21 04:54:29;;;;;;;;;;;;;;;19.46;50.43;100502.72;5004751;28;7192;-80
2022/06/21 04:57:03;;;;;;;;;;;;;;;19.69;49.58;100503.00;5013918;28;7907;-79
2022/06/21 04:59:41;;;;;;;;;;;;;;;19.93;49.24;100504.16;5019133;28;7344;-81
2022/06/21 05:02:20;;;;;;;;;;;;;;;20.15;49.07;100501.81;5034329;28;7746;-80
2022/06/21 05:04:54;;;;;;;;;;;;;;;20.38;48.40;100502.94;5037168;28;7672;-80
2022/06/21 05:07:29;;;;;;;;;;;;;;;20.60;47.57;100503.09;5007027;28;6843;-80
2022/06/21 05:09:57;;;;;;;;;;;;;;;20.80;47.35;100499.78;5015952;28;7215;-80
2022/06/21 05:12:35;;;;;;;;;;;;;;;21.00;46.47;100489.53;5018943;28;7221;-80
2022/06/21 05:15:13;;;;;;;;;;;;;;;21.12;45.83;100488.72;5024161;28;7048;-80
2022/06/21 05:17:43;;;;;;;;;;;;;;;21.23;45.73;100500.09;5005950;28;7883;-81
2022/06/21 05:20:20;;;;;;;;;;;;;;;21.32;45.48;100498.38;4994396;28;7008;-80
2022/06/21 05:22:52;;;;;;;;;;;;;;;21.45;44.64;100501.94;5017736;28;7001;-80
2022/06/21 05:25:30;;;;;;;;;;;;;;;21.55;44.76;100495.03;5016933;28;8420;-80
2022/06/21 05:28:17;;;;;;;;;;;;;;;21.72;45.36;100503.81;5019452;28;8551;-80
2022/06/21 05:30:53;;;;;;;;;;;;;;;21.98;45.48;100517.81;5020210;28;7114;-79
2022/06/21 05:33:48;;;;;;;;;;;;;;;22.29;44.77;100508.28;5004252;28;8420;-79
2022/06/21 05:36:30;;;;;;;;;;;;;;;22.63;44.42;100493.56;5023430;28;7014;-81
2022/06/21 05:39:20;;;;;;;;;;;;;;;22.94;43.81;100499.63;5021105;28;7266;-80
2022/06/21 05:41:55;;;;;;;;;;;;;;;23.22;43.15;100515.22;5005168;28;7219;-80
2022/06/21 05:44:34;;;;;;;;;;;;;;;23.43;42.72;100509.09;5021261;28;6812;-80
2022/06/21 05:47:27;;;;;;;;;;;;;;;23.64;41.87;100509.88;5020160;28;6846;-80
2022/06/21 05:49:57;;;;;;;;;;;;;;;23.79;41.62;100508.09;5006835;28;7664;-81
2022/06/21 05:52:31;;;;;;;;;;;;;;;23.90;41.01;100513.25;5011007;28;6977;-81
2022/06/21 05:55:16;;;;;;;;;;;;;;;23.88;41.28;100509.78;4994182;28;8290;-80
2022/06/21 05:57:58;;;;;;;;;;;;;;;23.91;41.35;100515.00;5005943;28;7273;-80
2022/06/21 06:00:51;;;;;;;;;;;;;;;23.95;41.45;100516.72;5012369;28;9183;-80
2022/06/21 06:03:37;;;;;;;;;;;;;;;23.92;40.47;100514.13;5022972;28;6986;-80
2022/06/21 06:06:05;;;;;;;;;;;;;;;23.70;39.36;100509.84;5036887;28;7158;-81
2022/06/21 06:08:41;;;;;;;;;;;;;;;23.37;39.98;100498.69;5004106;28;6800;-80
2022/06/21 06:11:16;;;;;;;;;;;;;;;23.03;40.36;100498.72;5017989;28;6989;-80
2022/06/21 06:13:43;;;;;;;;;;;;;;;22.73;40.12;100501.38;4993894;28;7237;-80
2022/06/21 06:16:21;;;;;;;;;;;;;;;22.46;40.69;100507.44;5019048;28;7081;-80
2022/06/21 06:19:03;;;;;;;;;;;;;;;22.20;41.27;100521.31;5020791;28;7204;-80
2022/06/21 06:22:02;;;;;;;;;;;;;;;21.99;40.98;100528.25;5020057;28;8279;-79
2022/06/21 06:24:43;;;;;;;;;;;;;;;21.73;41.48;100523.84;4986602;28;8433;-80
2022/06/21 06:27:45;;;;;;;;;;;;;;;21.56;41.94;100528.06;5002313;28;6827;-80
2022/06/21 06:30:21;;;;;;;;;;;;;;;21.44;42.25;100518.44;5015303;28;7144;-79
2022/06/21 06:33:09;;;;;;;;;;;;;;;21.37;42.85;100517.53;5014663;28;8822;-80
2022/06/21 06:35:36;;;;;;;;;;;;;;;21.33;43.33;100521.88;5001939;28;8416;-80
2022/06/21 06:38:01;;;;;;;;;;;;;;;21.35;43.46;100521.88;5021492;28;7074;-79
2022/06/21 06:40:56;;;;;;;;;;;;;;;21.38;43.28;100511.47;5017915;28;7183;-80
2022/06/21 06:43:46;;;;;;;;;;;;;;;21.39;43.45;100505.38;5017160;28;7188;-81
2022/06/21 06:46:30;;;;;;;;;;;;;;;21.46;43.79;100519.31;5002161;28;8395;-80
2022/06/21 06:49:34;;;;;;;;;;;;;;;21.56;43.63;100520.25;5010596;28;6807;-80
2022/06/21 06:52:12;;;;;;;;;;;;;;;21.65;43.84;100522.91;5023688;28;8773;-80
2022/06/21 06:55:22;;;;;;;;;;;;;;;21.82;43.97;100524.69;5018452;28;6986;-80
2022/06/21 06:57:55;;;;;;;;;;;;;;;21.98;43.47;100515.22;5022514;28;6824;-80
2022/06/21 07:00:37;;;;;;;;;;;;;;;22.14;43.33;100522.19;5026332;28;7072;-80
2022/06/21 07:03:14;;;;;;;;;;;;;;;22.38;43.56;100522.22;5005782;28;7439;-80
2022/06/21 07:05:53;;;;;;;;;;;;;;;22.68;43.22;100515.31;5023542;28;6811;-80
2022/06/21 07:08:26;;;;;;;;;;;;;;;23.07;43.27;100510.91;5040162;28;6819;-80
2022/06/21 07:10:58;;;;;;;;;;;;;;;23.51;42.31;100514.28;5011310;28;8714;-80
2022/06/21 07:13:25;;;;;;;;;;;;;;;23.84;41.28;100522.88;5018914;28;6827;-80
2022/06/21 07:16:04;;;;;;;;;;;;;;;24.19;41.52;100520.97;4993888;28;7080;-80
2022/06/21 07:18:42;;;;;;;;;;;;;;;24.50;40.70;100525.97;5015314;28;6812;-80
2022/06/21 07:21:07;;;;;;;;;;;;;;;24.67;39.76;100535.44;5013835;28;7199;-81
2022/06/21 07:23:33;;;;;;;;;;;;;;;24.77;39.61;100533.59;5016645;28;8746;-80
2022/06/21 07:26:10;;;;;;;;;;;;;;;24.99;39.22;100529.06;5016358;28;6784;-80
2022/06/21 07:28:56;;;;;;;;;;;;;;;25.27;39.02;100523.53;5000829;28;6907;-80
2022/06/21 07:31:37;;;;;;;;;;;;;;;25.69;38.77;100511.69;5014639;28;6828;-80
2022/06/21 07:34:35;;;;;;;;;;;;;;;26.19;37.96;100504.00;5016244;28;6800;-80
2022/06/21 07:37:20;;;;;;;;;;;;;;;26.69;37.25;100504.09;5016247;28;6966;-80
2022/06/21 07:40:22;;;;;;;;;;;;;;;27.18;36.32;100507.59;5014348;28;6990;-80
2022/06/21 07:43:14;;;;;;;;;;;;;;;27.62;35.36;100500.63;5013633;28;7198;-80
2022/06/21 07:45:58;;;;;;;;;;;;;;;27.69;34.44;100489.94;5010707;28;7198;-80
2022/06/21 07:48:38;;;;;;;;;;;;;;;27.71;34.61;100479.34;4994288;28;8742;-80
2022/06/21 07:51:16;;;;;;;;;;;;;;;27.80;34.06;100473.88;5014692;28;7186;-80
2022/06/21 07:53:52;;;;;;;;;;;;;;;27.98;34.07;100477.00;5012856;28;6989;-80
2022/06/21 07:56:40;;;;;;;;;;;;;;;28.25;33.37;100469.38;5026093;28;7086;-80
2022/06/21 07:59:17;;;;;;;;;;;;;;;28.38;32.38;100470.78;5000016;28;7222;-80
2022/06/21 08:08:26;;;;;;;;;;;;;;;28.50;31.67;100461.69;5014042;28;7285;-79
2022/06/21 08:11:39;;;;;;;;;;;;;;;28.38;31.88;100454.97;4999981;28;8451;-79
2022/06/21 08:14:09;;;;;;;;;;;;;;;28.26;31.99;100450.03;5000347;28;7753;-78
2022/06/21 08:16:48;;;;;;;;;;;;;;;28.21;31.78;100449.28;5015844;28;7852;-79
2022/06/21 08:19:32;;;;;;;;;;;;;;;28.09;31.53;100450.41;5004134;28;7687;-78
2022/06/21 08:22:15;;;;;;;;;;;;;;;27.99;31.91;100452.38;5009621;28;7195;-78
2022/06/21 08:25:17;;;;;;;;;;;;;;;27.88;31.48;100444.75;5013998;28;6819;-78
2022/06/21 08:28:17;;;;;;;;;;;;;;;27.73;31.45;100443.34;4993654;28;6812;-78
2022/06/21 08:30:58;;;;;;;;;;;;;;;27.65;31.58;100432.13;5012162;28;7417;-78
2022/06/21 08:33:42;;;;;;;;;;;;;;;27.62;31.70;100432.19;5015428;28;8385;-78
2022/06/21 08:36:17;;;;;;;;;;;;;;;27.66;31.91;100433.84;5014847;28;8056;-78
2022/06/21 08:39:13;;;;;;;;;;;;;;;27.93;31.64;100426.22;5003467;28;7639;-78
2022/06/21 08:42:01;;;;;;;;;;;;;;;28.42;31.81;100414.47;5011338;28;7368;-79
2022/06/21 08:48:19;;;;;;;;;;;;;;;29.26;30.13;100411.31;5012722;28;7224;-78
2022/06/21 08:51:30;;;;;;;;;;;;;;;29.19;29.81;100397.44;4998837;28;6971;-78
2022/06/21 08:54:30;;;;;;;;;;;;;;;29.00;29.37;100377.78;5033597;28;6900;-78
2022/06/21 08:57:22;;;;;;;;;;;;;;;28.93;30.06;100377.09;5008113;28;7578;-78
2022/06/21 09:00:08;;;;;;;;;;;;;;;28.81;29.96;100371.22;5008769;28;7042;-78
2022/06/21 09:02:55;;;;;;;;;;;;;;;28.95;30.08;100373.50;5015088;28;8388;-78
2022/06/21 09:05:48;;;;;;;;;;;;;;;29.30;30.02;100375.13;5000679;28;6812;-78
2022/06/21 09:08:29;;;;;;;;;;;;;;;29.34;29.76;100371.47;5018170;28;6977;-78
2022/06/21 09:11:28;;;;;;;;;;;;;;;29.18;29.22;100365.81;5014295;28;7035;-78
2022/06/21 09:14:24;;;;;;;;;;;;;;;28.96;28.95;100372.59;5033584;28;7943;-78
2022/06/21 09:17:17;;;;;;;;;;;;;;;28.70;28.75;100375.94;5030851;28;6900;-78
2022/06/21 09:20:21;;;;;;;;;;;;;;;28.65;29.54;100388.41;5006497;28;7362;-78
2022/06/21 09:23:22;;;;;;;;;;;;;;;29.08;29.09;100389.81;5026728;28;6830;-78
2022/06/21 09:25:59;;;;;;;;;;;;;;;29.84;28.90;100369.94;4989010;28;8392;-78
2022/06/21 09:28:40;;;;;;;;;;;;;;;30.62;28.56;100369.03;5004178;28;8824;-78
2022/06/21 09:31:18;;;;;;;;;;;;;;;31.33;27.46;100359.41;5019488;28;7099;-78
2022/06/21 09:34:09;;;;;;;;;;;;;;;31.68;26.26;100361.53;5015567;28;6998;-78
2022/06/21 09:36:49;;;;;;;;;;;;;;;31.77;25.63;100362.94;5008039;28;7015;-76
2022/06/21 09:39:36;;;;;;;;;;;;;;;31.48;25.38;100362.34;5006740;28;7723;-76
2022/06/21 09:42:32;;;;;;;;;;;;;;;31.00;25.50;100362.38;5016327;28;7198;-77
2022/06/21 09:45:28;;;;;;;;;;;;;;;30.47;25.94;100359.88;5016777;28;6895;-77
2022/06/21 09:48:48;;;;;;;;;;;;;;;29.93;26.83;100359.06;5013656;28;7175;-77
2022/06/21 09:51:53;;;;;;;;;;;;;;;29.48;27.53;100363.16;4999984;28;7215;-77
2022/06/21 09:54:38;;;;;;;;;;;;;;;29.29;28.33;100362.84;4981382;28;6804;-77
2022/06/21 09:57:41;;;;;;;;;;;;;;;29.15;27.84;100360.63;5016618;28;6803;-77
2022/06/21 10:00:22;;;;;;;;;;;;;;;29.01;27.83;100358.41;5015966;28;7199;-77
2022/06/21 10:03:24;;;;;;;;;;;;;;;28.94;28.35;100363.00;5017521;28;6906;-77
2022/06/21 10:06:27;;;;;;;;;;;;;;;28.95;27.96;100360.31;5012090;28;7005;-77
2022/06/21 10:09:21;;;;;;;;;;;;;;;29.23;28.28;100370.03;5032987;28;7320;-77
2022/06/21 10:12:11;;;;;;;;;;;;;;;29.61;28.38;100347.78;5002678;28;7696;-77
2022/06/21 10:15:21;;;;;;;;;;;;;;;29.85;27.98;100350.56;5013945;28;6819;-78
2022/06/21 10:18:27;;;;;;;;;;;;;;;29.69;27.35;100340.50;5019767;28;6918;-78
2022/06/21 10:21:02;;;;;;;;;;;;;;;29.48;28.37;100350.84;5013988;28;7226;-78
2022/06/21 10:24:06;;;;;;;;;;;;;;;29.16;28.58;100351.81;5014822;28;7798;-78
2022/06/21 10:26:49;;;;;;;;;;;;;;;28.73;28.88;100360.06;5013258;28;8423;-78
2022/06/21 10:29:22;;;;;;;;;;;;;;;28.42;28.85;100364.41;5007795;28;8491;-78
2022/06/21 10:32:24;;;;;;;;;;;;;;;28.16;28.71;100380.88;5005903;28;7297;-78
2022/06/21 10:35:17;;;;;;;;;;;;;;;27.86;29.40;100386.84;5026832;28;7018;-78
2022/06/21 10:38:16;;;;;;;;;;;;;;;27.78;30.19;100385.31;5009948;28;7234;-80
2022/06/21 10:41:10;;;;;;;;;;;;;;;27.92;30.29;100377.94;5009122;28;7210;-79
2022/06/21 10:43:51;;;;;;;;;;;;;;;28.30;30.14;100370.00;5000841;28;9687;-78
2022/06/21 10:46:29;;;;;;;;;;;;;;;28.73;29.70;100360.06;5009422;28;7344;-78
2022/06/21 10:49:14;;;;;;;;;;;;;;;29.08;28.63;100358.16;5010023;28;6976;-78
2022/06/21 10:51:46;;;;;;;;;;;;;;;29.21;28.65;100350.75;5010964;28;8043;-78
2022/06/21 10:54:59;;;;;;;;;;;;;;;29.22;28.17;100344.56;5009585;28;8421;-78
2022/06/21 10:57:51;;;;;;;;;;;;;;;29.19;28.51;100346.44;4963205;28;6807;-78
2022/06/21 11:04:14;;;;;;;;;;;;;;;29.24;28.13;100355.06;5012572;28;7232;-78
2022/06/21 11:07:15;;;;;;;;;;;;;;;29.17;28.39;100343.84;4960111;28;7193;-78
2022/06/21 11:09:57;;;;;;;;;;;;;;;29.30;28.44;100349.59;4976655;28;8138;-78
2022/06/21 11:13:06;;;;;;;;;;;;;;;29.44;28.40;100345.66;5005493;28;7208;-78
2022/06/21 11:16:17;;;;;;;;;;;;;;;29.72;28.14;100348.31;5000229;28;7234;-78
2022/06/21 11:19:19;;;;;;;;;;;;;;;29.85;27.37;100351.41;5011622;28;7110;-78
2022/06/21 11:22:03;;;;;;;;;;;;;;;30.00;27.66;100349.19;5010436;28;8081;-77
2022/06/21 11:24:50;;;;;;;;;;;;;;;30.14;27.76;100356.66;5012166;28;7112;-77
2022/06/21 11:27:39;;;;;;;;;;;;;;;30.34;27.25;100350.66;5011400;28;6808;-77
2022/06/21 11:30:22;;;;;;;;;;;;;;;30.55;27.12;100356.09;5014698;28;6973;-77
2022/06/21 11:33:07;;;;;;;;;;;;;;;30.76;26.44;100349.19;5007189;28;6803;-77
2022/06/21 11:36:11;;;;;;;;;;;;;;;31.29;26.34;100348.06;5014579;28;6887;-78
2022/06/21 11:39:03;;;;;;;;;;;;;;;31.89;25.66;100343.03;5016049;28;6819;-79
2022/06/21 11:42:06;;;;;;;;;;;;;;;32.11;24.69;100337.69;4996727;28;6788;-78
2022/06/21 11:45:06;;;;;;;;;;;;;;;32.09;24.51;100336.91;5014902;28;6808;-78
2022/06/21 11:47:49;;;;;;;;;;;;;;;31.67;24.87;100328.03;5014642;28;8046;-78
2022/06/21 11:50:21;;;;;;;;;;;;;;;31.22;24.75;100337.75;4999327;28;7204;-79
2022/06/21 11:53:00;;;;;;;;;;;;;;;30.78;25.52;100331.47;5013676;28;6804;-78
2022/06/21 11:55:56;;;;;;;;;;;;;;;30.43;26.03;100325.69;4995121;28;8079;-78
2022/06/21 11:58:42;;;;;;;;;;;;;;;30.33;25.83;100331.31;5013793;28;6980;-78
2022/06/21 12:01:42;;;;;;;;;;;;;;;30.40;26.42;100337.22;4998741;28;7047;-78
2022/06/21 12:04:24;;;;;;;;;;;;;;;30.38;25.61;100323.22;5015328;28;6985;-79
2022/06/21 12:06:59;;;;;;;;;;;;;;;30.43;26.29;100325.69;5016549;28;7218;-79
2022/06/21 12:10:19;;;;;;;;;;;;;;;30.65;26.20;100322.28;5005050;28;7190;-78
2022/06/21 12:13:01;;;;;;;;;;;;;;;31.36;25.66;100316.06;5017370;28;6975;-78
2022/06/21 12:15:45;;;;;;;;;;;;;;;31.93;24.83;100307.56;4987398;28;7926;-79
2022/06/21 12:18:23;;;;;;;;;;;;;;;32.49;24.29;100299.81;5033279;28;8097;-78
2022/06/21 12:21:09;;;;;;;;;;;;;;;32.83;23.93;100301.75;5011542;28;7184;-78
2022/06/21 12:23:37;;;;;;;;;;;;;;;32.95;23.82;100291.56;5014455;28;6896;-78
2022/06/21 12:26:05;;;;;;;;;;;;;;;32.91;23.78;100292.59;5015364;28;6803;-78
2022/06/21 12:28:35;;;;;;;;;;;;;;;32.54;23.46;100295.19;5006598;28;7687;-78
2022/06/21 12:31:31;;;;;;;;;;;;;;;32.07;24.04;100296.38;5022331;28;7265;-78
2022/06/21 12:34:11;;;;;;;;;;;;;;;31.78;24.15;100290.50;5020197;28;8309;-78
2022/06/21 12:36:48;;;;;;;;;;;;;;;31.84;24.80;100292.91;5020996;28;6971;-78
2022/06/21 12:39:36;;;;;;;;;;;;;;;32.07;24.72;100280.47;5020463;28;7075;-78
2022/06/21 12:42:19;;;;;;;;;;;;;;;32.19;24.26;100274.59;5024278;28;9954;-78
2022/06/21 12:45:22;;;;;;;;;;;;;;;32.03;24.22;100284.16;5017720;28;6827;-77
2022/06/21 12:48:09;;;;;;;;;;;;;;;31.63;24.08;100281.41;5029805;28;6807;-78
2022/06/21 12:51:11;;;;;;;;;;;;;;;31.39;24.25;100274.44;5034012;28;7125;-78
2022/06/21 12:54:07;;;;;;;;;;;;;;;31.29;25.08;100273.94;5014311;28;6999;-78
2022/06/21 12:57:04;;;;;;;;;;;;;;;31.48;24.78;100272.31;5015511;28;8601;-77
2022/06/21 12:59:45;;;;;;;;;;;;;;;31.97;24.70;100266.75;5023106;28;7883;-78
2022/06/21 13:02:38;;;;;;;;;;;;;;;32.19;24.01;100271.97;5015331;28;7499;-78
2022/06/21 13:05:38;;;;;;;;;;;;;;;32.24;24.15;100271.75;5007160;28;6816;-77
2022/06/21 13:08:50;;;;;;;;;;;;;;;32.07;23.67;100270.72;5012356;28;6807;-78
2022/06/21 13:11:46;;;;;;;;;;;;;;;31.90;24.06;100276.75;5016604;28;6827;-78
2022/06/21 13:14:39;;;;;;;;;;;;;;;31.76;23.83;100279.09;4992985;28;7282;-78
2022/06/21 13:17:16;;;;;;;;;;;;;;;31.50;24.50;100270.47;5011872;28;6992;-78
2022/06/21 13:20:22;;;;;;;;;;;;;;;31.24;24.16;100264.47;5017073;28;6808;-78
2022/06/21 13:23:11;;;;;;;;;;;;;;;31.06;24.79;100277.47;5014435;28;7081;-78
2022/06/21 13:26:32;;;;;;;;;;;;;;;30.90;24.51;100275.47;5010818;28;6824;-78
2022/06/21 13:29:35;;;;;;;;;;;;;;;30.81;25.22;100286.41;4994186;28;6824;-79
2022/06/21 13:32:20;;;;;;;;;;;;;;;30.72;24.76;100284.94;5012881;28;7084;-78
2022/06/21 13:35:04;;;;;;;;;;;;;;;30.70;25.02;100275.34;5012936;28;6820;-78
2022/06/21 13:37:40;;;;;;;;;;;;;;;30.77;25.18;100276.84;5012006;28;6944;-78
2022/06/21 13:40:59;;;;;;;;;;;;;;;30.90;24.53;100270.16;5008288;28;6819;-78
2022/06/21 13:43:44;;;;;;;;;;;;;;;31.29;24.95;100263.34;4958368;28;6840;-78
2022/06/21 13:46:28;;;;;;;;;;;;;;;31.81;24.46;100261.25;5006055;28;6820;-78
2022/06/21 13:49:02;;;;;;;;;;;;;;;32.31;23.77;100264.38;5012985;28;6834;-78
2022/06/21 13:51:49;;;;;;;;;;;;;;;32.64;23.21;100255.81;4994789;28;7074;-78
2022/06/21 13:54:23;;;;;;;;;;;;;;;32.79;23.05;100256.91;5014020;28;6970;-78
2022/06/21 13:57:36;;;;;;;;;;;;;;;32.85;22.91;100247.78;5012719;28;6811;-78
2022/06/21 14:00:05;;;;;;;;;;;;;;;32.91;22.73;100248.34;5014940;28;6820;-78
2022/06/21 14:02:45;;;;;;;;;;;;;;;32.97;22.67;100239.25;5010772;28;6816;-78
2022/06/21 14:05:22;;;;;;;;;;;;;;;32.97;22.39;100239.25;5013442;28;6993;-78
2022/06/21 14:07:58;;;;;;;;;;;;;;;32.86;22.27;100233.59;5011652;28;6978;-78
2022/06/21 14:10:51;;;;;;;;;;;;;;;32.67;22.23;100230.00;5011833;28;8500;-78
2022/06/21 14:13:39;;;;;;;;;;;;;;;32.30;22.39;100217.59;5012813;28;7852;-78
2022/06/21 14:16:32;;;;;;;;;;;;;;;31.88;22.89;100222.09;5006051;28;7045;-78
2022/06/21 14:19:33;;;;;;;;;;;;;;;31.50;23.08;100222.81;4995594;28;7617;-78
2022/06/21 14:22:22;;;;;;;;;;;;;;;31.17;23.69;100211.75;5010224;28;6895;-79
2022/06/21 14:24:55;;;;;;;;;;;;;;;30.93;24.58;100204.84;5011298;28;6990;-78
2022/06/21 14:27:58;;;;;;;;;;;;;;;30.65;24.00;100204.13;4998991;28;7863;-78